Details From KRDM - Roberts Fld
To KHIO - PORTLAND HILLSBORO
Flight Number -
Tags generated
Created
Modified
Stats Distance 109 nm / 201 km
Max Altitude 4,600 ft / 1,402 m
Waypoints 3
Social Downloads 0
Likes 0
Share VATSIM

Download

Looking for another format? Having issues loading an existing format? Contact us
Advertisement - Login to hide

Notes

Basic altitude profile: - Ascent Rate: 2500ft/min - Ascent Speed: 250kts - Cruise Altitude: 25000ft - Cruise Speed: 250kts - Descent Rate: 1500ft/min - Descent Speed: 175kts Options: - Use NATs: yes - Use PACOTS: yes - Use low airways: yes - Use high airways: yes

Route

KRDM GLARA KHIO

ID Type Via Altitude Latitude Longitude Leg Dist Tot Dist Heading (true) Name
O KRDM APT - 0 ft / 0 m 44.25407˚ -121.14996˚ - 0 nm - Roberts Fld
GLARA FIX - 4,600 ft / 1,402 m 45.27789˚ -122.60315˚ 87 nm 87 nm 315° / 314° -
O KHIO APT - 0 ft / 0 m 45.54008˚ -122.94968˚ 21 nm 108 nm 317° / 317° PORTLAND HILLSBORO

Altitude Profile

Advertisement - Login to hide

KRDM

Details ICAO KRDM (RDM)
Name Roberts Fld
Region United States
Timezone America/Los_Angeles (UTC-8.0)
Stats Elevation 3,077 ft / 938 m (AMSL)
Location 44.254066° -121.149963°
Runways 2
Magnetic Variation 14.717° E

METAR

KRDM 121958Z 07003KT 10SM CLR 02/M07 A3046 RMK AO2 HZ ALQDS CAUSED BY STAGNANT AIR T00221072

Decode

TAF

TAF KRDM 121738Z 1218/1318 21003KT P6SM SCT250 FM122000 34005KT P6SM BKN250 FM130400 11004KT P6SM BKN150

Decode

Departure Runways

ID Width Length Bearing (true) Bearing (mag) Surface Threshold Offset Overrun Length
04 150 ft / 46 m 7,028 ft / 2,142 m 60.26° 45.54° Asphalt 0 ft / 0 m 0 ft / 0 m
10 100 ft / 30 m 6,987 ft / 2,130 m 121.97° 107.25° Asphalt 0 ft / 0 m 0 ft / 0 m
22 150 ft / 46 m 7,028 ft / 2,142 m 240.28° 225.56° Asphalt 0 ft / 0 m 0 ft / 0 m
28 100 ft / 30 m 6,987 ft / 2,130 m 301.99° 287.27° Asphalt 0 ft / 0 m 0 ft / 0 m

KHIO

Details ICAO KHIO (HIO)
Name PORTLAND HILLSBORO
Region United States
Timezone America/Los_Angeles (UTC-8.0)
Stats Elevation 204 ft / 62 m (AMSL)
Location 45.540082° -122.949680°
Runways 2
Magnetic Variation 15.343° E

METAR

KHIO 121953Z 32003KT 10SM OVC085 03/M01 A3048 RMK AO2 SLP323 T00331011

Decode

TAF

KHIO 121727Z 1218/1318 VRB03KT P6SM SCT250 FM122200 00000KT P6SM SCT250

Decode

Destination Runways

ID Width Length Bearing (true) Bearing (mag) Surface Threshold Offset Overrun Length
02 98 ft / 30 m 4,054 ft / 1,236 m 39.50° 24.16° Asphalt 0 ft / 0 m 0 ft / 0 m
12 151 ft / 46 m 6,506 ft / 1,983 m 143.67° 128.33° Asphalt 0 ft / 0 m 200 ft / 61 m
20 98 ft / 30 m 4,054 ft / 1,236 m 219.50° 204.16° Asphalt 161 ft / 49 m 0 ft / 0 m
30 151 ft / 46 m 6,506 ft / 1,983 m 323.68° 308.34° Asphalt 0 ft / 0 m 604 ft / 184 m

Approach Navaids

Runway Type Ident Frequency Range Bearing (true) Bearing (mag) Slope Elevation
12 Localiser IHIO 110.70 MHz 18 nm / 33 km 143.68° 128.34° - 190 ft / 58 m (AMSL)
12 Glidescope IHIO 110.70 MHz 10 nm / 19 km 143.68° 128.34° 3.00° 192 ft / 59 m (AMSL)